sensor_id;sensor_type;location;lat;lon;timestamp;P1;durP1;ratioP1;P2;durP2;ratioP2
60494;SDS011;46342;49.046;11.920;2023-04-15T00:02:22;7.78;;;5.53;;
60494;SDS011;46342;49.046;11.920;2023-04-15T00:04:48;6.72;;;4.65;;
60494;SDS011;46342;49.046;11.920;2023-04-15T00:07:13;4.93;;;4.10;;
60494;SDS011;46342;49.046;11.920;2023-04-15T00:09:40;6.40;;;3.60;;
60494;SDS011;46342;49.046;11.920;2023-04-15T00:12:06;3.22;;;2.92;;
60494;SDS011;46342;49.046;11.920;2023-04-15T00:14:33;2.58;;;2.20;;
60494;SDS011;46342;49.046;11.920;2023-04-15T00:17:00;2.55;;;2.35;;
60494;SDS011;46342;49.046;11.920;2023-04-15T00:19:26;2.38;;;2.03;;
60494;SDS011;46342;49.046;11.920;2023-04-15T00:21:51;2.50;;;2.30;;
60494;SDS011;46342;49.046;11.920;2023-04-15T00:24:17;2.33;;;2.13;;
60494;SDS011;46342;49.046;11.920;2023-04-15T00:26:43;2.50;;;2.08;;
60494;SDS011;46342;49.046;11.920;2023-04-15T00:29:09;2.40;;;2.20;;
60494;SDS011;46342;49.046;11.920;2023-04-15T00:31:34;2.25;;;1.80;;
60494;SDS011;46342;49.046;11.920;2023-04-15T00:34:00;2.17;;;2.00;;
60494;SDS011;46342;49.046;11.920;2023-04-15T00:36:26;2.63;;;1.88;;
60494;SDS011;46342;49.046;11.920;2023-04-15T00:38:52;1.98;;;1.80;;
60494;SDS011;46342;49.046;11.920;2023-04-15T00:41:18;2.38;;;2.17;;
60494;SDS011;46342;49.046;11.920;2023-04-15T00:43:44;2.00;;;1.90;;
60494;SDS011;46342;49.046;11.920;2023-04-15T00:46:11;2.33;;;2.13;;
60494;SDS011;46342;49.046;11.920;2023-04-15T00:48:40;3.03;;;2.65;;
60494;SDS011;46342;49.046;11.920;2023-04-15T00:51:06;3.63;;;3.30;;
60494;SDS011;46342;49.046;11.920;2023-04-15T00:53:33;3.75;;;2.58;;
60494;SDS011;46342;49.046;11.920;2023-04-15T00:55:59;2.38;;;2.17;;
60494;SDS011;46342;49.046;11.920;2023-04-15T00:58:25;2.38;;;2.15;;
60494;SDS011;46342;49.046;11.920;2023-04-15T01:00:51;2.60;;;2.20;;
60494;SDS011;46342;49.046;11.920;2023-04-15T01:03:19;3.10;;;2.80;;
60494;SDS011;46342;49.046;11.920;2023-04-15T01:05:45;6.97;;;4.65;;
60494;SDS011;46342;49.046;11.920;2023-04-15T01:08:10;5.13;;;3.88;;
60494;SDS011;46342;49.046;11.920;2023-04-15T01:10:36;5.47;;;4.55;;
60494;SDS011;46342;49.046;11.920;2023-04-15T01:13:02;6.13;;;4.57;;
60494;SDS011;46342;49.046;11.920;2023-04-15T01:15:28;4.55;;;3.72;;
60494;SDS011;46342;49.046;11.920;2023-04-15T01:17:54;5.25;;;3.78;;
60494;SDS011;46342;49.046;11.920;2023-04-15T01:20:22;4.65;;;3.53;;
60494;SDS011;46342;49.046;11.920;2023-04-15T01:22:48;3.92;;;3.50;;
60494;SDS011;46342;49.046;11.920;2023-04-15T01:25:18;3.97;;;3.40;;
60494;SDS011;46342;49.046;11.920;2023-04-15T01:27:51;4.90;;;4.38;;
60494;SDS011;46342;49.046;11.920;2023-04-15T01:30:16;3.58;;;3.25;;
60494;SDS011;46342;49.046;11.920;2023-04-15T01:32:42;6.13;;;5.10;;
60494;SDS011;46342;49.046;11.920;2023-04-15T01:35:08;4.50;;;4.07;;
60494;SDS011;46342;49.046;11.920;2023-04-15T01:37:34;4.70;;;3.63;;
60494;SDS011;46342;49.046;11.920;2023-04-15T01:40:01;6.18;;;4.30;;
60494;SDS011;46342;49.046;11.920;2023-04-15T01:42:27;4.07;;;3.55;;
60494;SDS011;46342;49.046;11.920;2023-04-15T01:44:53;6.53;;;5.63;;
60494;SDS011;46342;49.046;11.920;2023-04-15T01:47:18;4.38;;;3.80;;
60494;SDS011;46342;49.046;11.920;2023-04-15T01:49:44;3.53;;;3.22;;
60494;SDS011;46342;49.046;11.920;2023-04-15T01:52:10;5.03;;;4.38;;
60494;SDS011;46342;49.046;11.920;2023-04-15T01:54:36;6.95;;;4.72;;
60494;SDS011;46342;49.046;11.920;2023-04-15T01:57:01;5.38;;;4.22;;
60494;SDS011;46342;49.046;11.920;2023-04-15T01:59:27;4.53;;;3.28;;
60494;SDS011;46342;49.046;11.920;2023-04-15T02:01:53;3.75;;;3.30;;
60494;SDS011;46342;49.046;11.920;2023-04-15T02:04:19;3.45;;;2.90;;
60494;SDS011;46342;49.046;11.920;2023-04-15T02:06:44;3.67;;;3.13;;
60494;SDS011;46342;49.046;11.920;2023-04-15T02:09:10;5.60;;;4.50;;
60494;SDS011;46342;49.046;11.920;2023-04-15T02:11:36;5.63;;;4.00;;
60494;SDS011;46342;49.046;11.920;2023-04-15T02:14:03;4.70;;;4.20;;
60494;SDS011;46342;49.046;11.920;2023-04-15T02:16:31;4.97;;;4.22;;
60494;SDS011;46342;49.046;11.920;2023-04-15T02:18:58;3.67;;;3.33;;
60494;SDS011;46342;49.046;11.920;2023-04-15T02:21:25;4.65;;;3.45;;
60494;SDS011;46342;49.046;11.920;2023-04-15T02:23:51;2.85;;;2.60;;
60494;SDS011;46342;49.046;11.920;2023-04-15T02:26:18;3.03;;;2.78;;
60494;SDS011;46342;49.046;11.920;2023-04-15T02:28:44;3.85;;;3.15;;
60494;SDS011;46342;49.046;11.920;2023-04-15T02:31:11;3.10;;;2.58;;
60494;SDS011;46342;49.046;11.920;2023-04-15T02:33:36;3.20;;;2.90;;
60494;SDS011;46342;49.046;11.920;2023-04-15T02:36:02;3.60;;;3.13;;
60494;SDS011;46342;49.046;11.920;2023-04-15T02:38:28;4.45;;;3.22;;
60494;SDS011;46342;49.046;11.920;2023-04-15T02:40:55;4.03;;;3.63;;
60494;SDS011;46342;49.046;11.920;2023-04-15T02:43:21;3.90;;;2.90;;
60494;SDS011;46342;49.046;11.920;2023-04-15T02:45:47;3.58;;;2.90;;
60494;SDS011;46342;49.046;11.920;2023-04-15T02:48:13;3.70;;;3.28;;
60494;SDS011;46342;49.046;11.920;2023-04-15T02:50:38;7.20;;;4.72;;
60494;SDS011;46342;49.046;11.920;2023-04-15T02:53:05;5.07;;;4.38;;
60494;SDS011;46342;49.046;11.920;2023-04-15T02:55:31;6.32;;;3.78;;
60494;SDS011;46342;49.046;11.920;2023-04-15T02:57:57;4.28;;;3.88;;
60494;SDS011;46342;49.046;11.920;2023-04-15T03:00:24;6.00;;;4.00;;
60494;SDS011;46342;49.046;11.920;2023-04-15T03:02:50;5.03;;;3.50;;
60494;SDS011;46342;49.046;11.920;2023-04-15T03:05:20;3.55;;;3.10;;
60494;SDS011;46342;49.046;11.920;2023-04-15T03:07:48;3.67;;;3.33;;
60494;SDS011;46342;49.046;11.920;2023-04-15T03:10:14;4.88;;;4.32;;
60494;SDS011;46342;49.046;11.920;2023-04-15T03:12:39;3.88;;;3.47;;
60494;SDS011;46342;49.046;11.920;2023-04-15T03:15:05;3.30;;;3.00;;
60494;SDS011;46342;49.046;11.920;2023-04-15T03:17:32;3.90;;;3.30;;
60494;SDS011;46342;49.046;11.920;2023-04-15T03:19:57;4.78;;;3.67;;
60494;SDS011;46342;49.046;11.920;2023-04-15T03:22:23;3.80;;;3.35;;
60494;SDS011;46342;49.046;11.920;2023-04-15T03:24:50;3.38;;;3.08;;
60494;SDS011;46342;49.046;11.920;2023-04-15T03:27:16;4.65;;;4.25;;
60494;SDS011;46342;49.046;11.920;2023-04-15T03:29:41;5.45;;;3.97;;
60494;SDS011;46342;49.046;11.920;2023-04-15T03:32:07;4.35;;;3.95;;
60494;SDS011;46342;49.046;11.920;2023-04-15T03:34:32;4.03;;;3.63;;
60494;SDS011;46342;49.046;11.920;2023-04-15T03:36:58;6.03;;;5.30;;
60494;SDS011;46342;49.046;11.920;2023-04-15T03:39:23;5.07;;;3.97;;
60494;SDS011;46342;49.046;11.920;2023-04-15T03:41:49;6.03;;;5.15;;
60494;SDS011;46342;49.046;11.920;2023-04-15T03:44:15;8.75;;;5.63;;
60494;SDS011;46342;49.046;11.920;2023-04-15T03:46:41;4.82;;;4.22;;
60494;SDS011;46342;49.046;11.920;2023-04-15T03:49:06;5.07;;;4.10;;
60494;SDS011;46342;49.046;11.920;2023-04-15T03:51:32;4.35;;;3.53;;
60494;SDS011;46342;49.046;11.920;2023-04-15T03:53:57;5.10;;;3.97;;
60494;SDS011;46342;49.046;11.920;2023-04-15T03:56:23;5.07;;;3.88;;
60494;SDS011;46342;49.046;11.920;2023-04-15T03:58:49;4.22;;;3.65;;
60494;SDS011;46342;49.046;11.920;2023-04-15T04:01:14;4.32;;;3.80;;
60494;SDS011;46342;49.046;11.920;2023-04-15T04:03:40;4.88;;;3.28;;
60494;SDS011;46342;49.046;11.920;2023-04-15T04:06:06;4.68;;;3.72;;
60494;SDS011;46342;49.046;11.920;2023-04-15T04:08:32;5.55;;;4.28;;
60494;SDS011;46342;49.046;11.920;2023-04-15T04:10:58;4.40;;;4.00;;
60494;SDS011;46342;49.046;11.920;2023-04-15T04:13:23;4.10;;;3.50;;
60494;SDS011;46342;49.046;11.920;2023-04-15T04:15:49;3.58;;;3.28;;
60494;SDS011;46342;49.046;11.920;2023-04-15T04:18:15;5.30;;;4.00;;
60494;SDS011;46342;49.046;11.920;2023-04-15T04:20:40;5.80;;;4.10;;
60494;SDS011;46342;49.046;11.920;2023-04-15T04:23:06;5.32;;;3.30;;
60494;SDS011;46342;49.046;11.920;2023-04-15T04:25:32;3.75;;;3.08;;
60494;SDS011;46342;49.046;11.920;2023-04-15T04:27:57;3.60;;;2.95;;
60494;SDS011;46342;49.046;11.920;2023-04-15T04:30:23;3.53;;;3.08;;
60494;SDS011;46342;49.046;11.920;2023-04-15T04:32:49;7.78;;;3.30;;
60494;SDS011;46342;49.046;11.920;2023-04-15T04:35:15;4.50;;;3.15;;
60494;SDS011;46342;49.046;11.920;2023-04-15T04:37:41;3.15;;;2.85;;
60494;SDS011;46342;49.046;11.920;2023-04-15T04:40:07;4.78;;;3.05;;
60494;SDS011;46342;49.046;11.920;2023-04-15T04:42:33;3.08;;;2.78;;
60494;SDS011;46342;49.046;11.920;2023-04-15T04:44:59;3.20;;;2.83;;
60494;SDS011;46342;49.046;11.920;2023-04-15T04:47:25;4.28;;;3.22;;
60494;SDS011;46342;49.046;11.920;2023-04-15T04:49:50;4.03;;;3.13;;
60494;SDS011;46342;49.046;11.920;2023-04-15T04:52:16;5.03;;;3.03;;
60494;SDS011;46342;49.046;11.920;2023-04-15T04:54:41;3.55;;;2.83;;
60494;SDS011;46342;49.046;11.920;2023-04-15T04:57:07;4.78;;;3.22;;
60494;SDS011;46342;49.046;11.920;2023-04-15T04:59:33;3.05;;;2.75;;
60494;SDS011;46342;49.046;11.920;2023-04-15T05:01:58;2.75;;;2.55;;
60494;SDS011;46342;49.046;11.920;2023-04-15T05:04:24;3.53;;;2.85;;
60494;SDS011;46342;49.046;11.920;2023-04-15T05:06:50;4.15;;;2.72;;
60494;SDS011;46342;49.046;11.920;2023-04-15T05:09:15;4.85;;;2.85;;
60494;SDS011;46342;49.046;11.920;2023-04-15T05:11:41;3.25;;;2.95;;
60494;SDS011;46342;49.046;11.920;2023-04-15T05:14:07;3.42;;;2.92;;
60494;SDS011;46342;49.046;11.920;2023-04-15T05:16:32;3.88;;;3.03;;
60494;SDS011;46342;49.046;11.920;2023-04-15T05:18:58;3.55;;;3.05;;
60494;SDS011;46342;49.046;11.920;2023-04-15T05:21:23;3.63;;;3.15;;
60494;SDS011;46342;49.046;11.920;2023-04-15T05:23:50;4.95;;;2.97;;
60494;SDS011;46342;49.046;11.920;2023-04-15T05:26:16;4.68;;;3.13;;
60494;SDS011;46342;49.046;11.920;2023-04-15T05:28:41;3.15;;;2.67;;
60494;SDS011;46342;49.046;11.920;2023-04-15T05:31:07;4.97;;;3.13;;
60494;SDS011;46342;49.046;11.920;2023-04-15T05:33:33;4.38;;;3.10;;
60494;SDS011;46342;49.046;11.920;2023-04-15T05:35:58;4.45;;;3.40;;
60494;SDS011;46342;49.046;11.920;2023-04-15T05:38:24;3.30;;;3.00;;
60494;SDS011;46342;49.046;11.920;2023-04-15T05:40:50;3.17;;;2.78;;
60494;SDS011;46342;49.046;11.920;2023-04-15T05:43:15;4.55;;;3.00;;
60494;SDS011;46342;49.046;11.920;2023-04-15T05:45:41;3.22;;;2.70;;
60494;SDS011;46342;49.046;11.920;2023-04-15T05:48:06;2.83;;;2.60;;
60494;SDS011;46342;49.046;11.920;2023-04-15T05:50:32;4.18;;;3.03;;
60494;SDS011;46342;49.046;11.920;2023-04-15T05:52:58;4.30;;;2.85;;
60494;SDS011;46342;49.046;11.920;2023-04-15T05:55:24;4.35;;;2.80;;
60494;SDS011;46342;49.046;11.920;2023-04-15T05:57:49;2.78;;;2.45;;
60494;SDS011;46342;49.046;11.920;2023-04-15T06:00:15;3.70;;;2.67;;
60494;SDS011;46342;49.046;11.920;2023-04-15T06:02:41;3.08;;;2.47;;
60494;SDS011;46342;49.046;11.920;2023-04-15T06:05:06;2.72;;;2.42;;
60494;SDS011;46342;49.046;11.920;2023-04-15T06:07:34;2.53;;;2.25;;
60494;SDS011;46342;49.046;11.920;2023-04-15T06:10:01;2.72;;;2.53;;
60494;SDS011;46342;49.046;11.920;2023-04-15T06:12:27;3.05;;;2.42;;
60494;SDS011;46342;49.046;11.920;2023-04-15T06:14:52;3.40;;;2.65;;
60494;SDS011;46342;49.046;11.920;2023-04-15T06:17:18;3.08;;;2.40;;
60494;SDS011;46342;49.046;11.920;2023-04-15T06:19:43;3.72;;;2.80;;
60494;SDS011;46342;49.046;11.920;2023-04-15T06:22:09;3.00;;;2.40;;
60494;SDS011;46342;49.046;11.920;2023-04-15T06:24:35;2.50;;;2.30;;
60494;SDS011;46342;49.046;11.920;2023-04-15T06:27:01;2.42;;;1.90;;
60494;SDS011;46342;49.046;11.920;2023-04-15T06:29:27;2.50;;;1.70;;
60494;SDS011;46342;49.046;11.920;2023-04-15T06:31:53;1.77;;;1.67;;
60494;SDS011;46342;49.046;11.920;2023-04-15T06:34:20;2.20;;;1.63;;
60494;SDS011;46342;49.046;11.920;2023-04-15T06:36:45;2.30;;;1.73;;
60494;SDS011;46342;49.046;11.920;2023-04-15T06:39:11;2.08;;;1.88;;
60494;SDS011;46342;49.046;11.920;2023-04-15T06:41:37;1.92;;;1.70;;
60494;SDS011;46342;49.046;11.920;2023-04-15T06:44:02;1.95;;;1.60;;
60494;SDS011;46342;49.046;11.920;2023-04-15T06:46:28;3.40;;;2.00;;
60494;SDS011;46342;49.046;11.920;2023-04-15T06:48:54;2.55;;;1.85;;
60494;SDS011;46342;49.046;11.920;2023-04-15T06:51:19;1.60;;;1.50;;
60494;SDS011;46342;49.046;11.920;2023-04-15T06:53:45;2.05;;;1.80;;
60494;SDS011;46342;49.046;11.920;2023-04-15T06:56:11;1.75;;;1.65;;
60494;SDS011;46342;49.046;11.920;2023-04-15T06:58:36;1.95;;;1.85;;
60494;SDS011;46342;49.046;11.920;2023-04-15T07:01:02;1.80;;;1.70;;
60494;SDS011;46342;49.046;11.920;2023-04-15T07:03:28;1.83;;;1.58;;
60494;SDS011;46342;49.046;11.920;2023-04-15T07:05:53;2.47;;;1.52;;
60494;SDS011;46342;49.046;11.920;2023-04-15T07:08:19;1.98;;;1.80;;
60494;SDS011;46342;49.046;11.920;2023-04-15T07:10:45;1.60;;;1.50;;
60494;SDS011;46342;49.046;11.920;2023-04-15T07:13:11;1.95;;;1.70;;
60494;SDS011;46342;49.046;11.920;2023-04-15T07:15:37;1.88;;;1.67;;
60494;SDS011;46342;49.046;11.920;2023-04-15T07:18:03;1.83;;;1.73;;
60494;SDS011;46342;49.046;11.920;2023-04-15T07:20:28;1.90;;;1.70;;
60494;SDS011;46342;49.046;11.920;2023-04-15T07:22:54;1.63;;;1.52;;
60494;SDS011;46342;49.046;11.920;2023-04-15T07:25:20;2.35;;;2.10;;
60494;SDS011;46342;49.046;11.920;2023-04-15T07:27:46;2.53;;;2.17;;
60494;SDS011;46342;49.046;11.920;2023-04-15T07:30:11;2.42;;;2.03;;
60494;SDS011;46342;49.046;11.920;2023-04-15T07:32:37;2.17;;;1.98;;
60494;SDS011;46342;49.046;11.920;2023-04-15T07:35:03;1.80;;;1.70;;
60494;SDS011;46342;49.046;11.920;2023-04-15T07:37:28;2.13;;;1.90;;
60494;SDS011;46342;49.046;11.920;2023-04-15T07:39:54;2.97;;;2.10;;
60494;SDS011;46342;49.046;11.920;2023-04-15T07:42:20;2.13;;;1.90;;
60494;SDS011;46342;49.046;11.920;2023-04-15T07:44:46;1.77;;;1.63;;
60494;SDS011;46342;49.046;11.920;2023-04-15T07:47:12;1.58;;;1.48;;
60494;SDS011;46342;49.046;11.920;2023-04-15T07:49:37;1.80;;;1.50;;
60494;SDS011;46342;49.046;11.920;2023-04-15T07:52:03;1.60;;;1.50;;
60494;SDS011;46342;49.046;11.920;2023-04-15T07:54:28;1.30;;;1.20;;
60494;SDS011;46342;49.046;11.920;2023-04-15T07:56:54;2.22;;;1.42;;
60494;SDS011;46342;49.046;11.920;2023-04-15T07:59:20;1.42;;;1.33;;
60494;SDS011;46342;49.046;11.920;2023-04-15T08:01:46;1.88;;;1.30;;
60494;SDS011;46342;49.046;11.920;2023-04-15T08:04:12;1.52;;;1.42;;
60494;SDS011;46342;49.046;11.920;2023-04-15T08:06:38;1.50;;;1.35;;
60494;SDS011;46342;49.046;11.920;2023-04-15T08:09:04;1.60;;;1.50;;
60494;SDS011;46342;49.046;11.920;2023-04-15T08:11:31;2.40;;;2.10;;
60494;SDS011;46342;49.046;11.920;2023-04-15T08:13:56;1.52;;;1.42;;
60494;SDS011;46342;49.046;11.920;2023-04-15T08:16:22;2.85;;;2.40;;
60494;SDS011;46342;49.046;11.920;2023-04-15T08:18:49;1.70;;;1.60;;
60494;SDS011;46342;49.046;11.920;2023-04-15T08:21:16;1.40;;;1.30;;
60494;SDS011;46342;49.046;11.920;2023-04-15T08:23:43;1.33;;;1.23;;
60494;SDS011;46342;49.046;11.920;2023-04-15T08:26:10;1.27;;;1.10;;
60494;SDS011;46342;49.046;11.920;2023-04-15T08:28:37;1.40;;;1.30;;
60494;SDS011;46342;49.046;11.920;2023-04-15T08:31:04;1.92;;;1.40;;
60494;SDS011;46342;49.046;11.920;2023-04-15T08:33:29;1.30;;;1.20;;
60494;SDS011;46342;49.046;11.920;2023-04-15T08:35:55;1.42;;;1.30;;
60494;SDS011;46342;49.046;11.920;2023-04-15T08:38:21;2.13;;;1.10;;
60494;SDS011;46342;49.046;11.920;2023-04-15T08:40:47;1.20;;;1.10;;
60494;SDS011;46342;49.046;11.920;2023-04-15T08:43:20;1.15;;;1.10;;
60494;SDS011;46342;49.046;11.920;2023-04-15T08:45:50;1.70;;;1.30;;
60494;SDS011;46342;49.046;11.920;2023-04-15T08:48:17;1.10;;;1.00;;
60494;SDS011;46342;49.046;11.920;2023-04-15T08:50:44;2.05;;;1.20;;
60494;SDS011;46342;49.046;11.920;2023-04-15T08:53:10;1.55;;;1.40;;
60494;SDS011;46342;49.046;11.920;2023-04-15T08:55:38;1.48;;;1.30;;
60494;SDS011;46342;49.046;11.920;2023-04-15T08:58:10;1.80;;;1.70;;
60494;SDS011;46342;49.046;11.920;2023-04-15T09:00:40;1.08;;;0.98;;
60494;SDS011;46342;49.046;11.920;2023-04-15T09:03:06;1.67;;;1.08;;
60494;SDS011;46342;49.046;11.920;2023-04-15T09:05:32;1.30;;;1.17;;
60494;SDS011;46342;49.046;11.920;2023-04-15T09:08:00;1.58;;;1.08;;
60494;SDS011;46342;49.046;11.920;2023-04-15T09:10:26;1.73;;;1.20;;
60494;SDS011;46342;49.046;11.920;2023-04-15T09:12:53;1.33;;;1.17;;
60494;SDS011;46342;49.046;11.920;2023-04-15T09:15:19;1.20;;;1.10;;
60494;SDS011;46342;49.046;11.920;2023-04-15T09:17:45;1.00;;;1.00;;
60494;SDS011;46342;49.046;11.920;2023-04-15T09:20:14;1.23;;;1.02;;
60494;SDS011;46342;49.046;11.920;2023-04-15T09:22:43;1.20;;;1.10;;
60494;SDS011;46342;49.046;11.920;2023-04-15T09:30:24;2.97;;;1.60;;
60494;SDS011;46342;49.046;11.920;2023-04-15T09:32:51;3.35;;;2.80;;
60494;SDS011;46342;49.046;11.920;2023-04-15T09:35:22;1.88;;;1.73;;
60494;SDS011;46342;49.046;11.920;2023-04-15T09:37:49;1.40;;;1.30;;
60494;SDS011;46342;49.046;11.920;2023-04-15T09:43:05;1.35;;;1.25;;
60494;SDS011;46342;49.046;11.920;2023-04-15T09:45:32;2.05;;;1.20;;
60494;SDS011;46342;49.046;11.920;2023-04-15T09:47:59;1.42;;;1.33;;
60494;SDS011;46342;49.046;11.920;2023-04-15T09:50:42;2.13;;;1.40;;
60494;SDS011;46342;49.046;11.920;2023-04-15T09:53:15;1.50;;;1.35;;
60494;SDS011;46342;49.046;11.920;2023-04-15T09:55:48;1.35;;;1.20;;
60494;SDS011;46342;49.046;11.920;2023-04-15T09:58:19;1.40;;;1.20;;
60494;SDS011;46342;49.046;11.920;2023-04-15T10:00:56;1.85;;;1.65;;
60494;SDS011;46342;49.046;11.920;2023-04-15T10:03:26;1.10;;;1.10;;
60494;SDS011;46342;49.046;11.920;2023-04-15T10:05:57;1.35;;;1.20;;
60494;SDS011;46342;49.046;11.920;2023-04-15T10:08:24;1.33;;;1.23;;
60494;SDS011;46342;49.046;11.920;2023-04-15T10:10:52;1.10;;;1.00;;
60494;SDS011;46342;49.046;11.920;2023-04-15T10:13:22;1.00;;;1.00;;
60494;SDS011;46342;49.046;11.920;2023-04-15T10:15:53;1.20;;;1.10;;
60494;SDS011;46342;49.046;11.920;2023-04-15T10:18:20;2.47;;;0.90;;
60494;SDS011;46342;49.046;11.920;2023-04-15T10:20:47;1.27;;;1.10;;
60494;SDS011;46342;49.046;11.920;2023-04-15T10:23:14;0.90;;;0.90;;
60494;SDS011;46342;49.046;11.920;2023-04-15T10:25:41;2.20;;;1.10;;
60494;SDS011;46342;49.046;11.920;2023-04-15T10:28:07;1.15;;;0.93;;
60494;SDS011;46342;49.046;11.920;2023-04-15T10:30:33;1.13;;;1.00;;
60494;SDS011;46342;49.046;11.920;2023-04-15T10:33:00;0.73;;;0.73;;
60494;SDS011;46342;49.046;11.920;2023-04-15T10:35:28;0.93;;;0.93;;
60494;SDS011;46342;49.046;11.920;2023-04-15T10:37:56;0.88;;;0.88;;
60494;SDS011;46342;49.046;11.920;2023-04-15T10:40:28;0.80;;;0.80;;
60494;SDS011;46342;49.046;11.920;2023-04-15T10:42:59;0.98;;;0.98;;
60494;SDS011;46342;49.046;11.920;2023-04-15T10:45:27;0.80;;;0.80;;
60494;SDS011;46342;49.046;11.920;2023-04-15T10:47:56;1.42;;;0.90;;
60494;SDS011;46342;49.046;11.920;2023-04-15T10:50:26;0.80;;;0.80;;
60494;SDS011;46342;49.046;11.920;2023-04-15T10:52:54;1.00;;;0.90;;
60494;SDS011;46342;49.046;11.920;2023-04-15T10:55:21;0.80;;;0.80;;
60494;SDS011;46342;49.046;11.920;2023-04-15T10:57:57;0.77;;;0.60;;
60494;SDS011;46342;49.046;11.920;2023-04-15T11:00:25;0.70;;;0.70;;
60494;SDS011;46342;49.046;11.920;2023-04-15T11:05:19;0.70;;;0.70;;
60494;SDS011;46342;49.046;11.920;2023-04-15T11:12:38;1.20;;;1.05;;
60494;SDS011;46342;49.046;11.920;2023-04-15T11:17:51;0.80;;;0.80;;
60494;SDS011;46342;49.046;11.920;2023-04-15T11:20:17;3.40;;;1.20;;
60494;SDS011;46342;49.046;11.920;2023-04-15T11:22:47;3.25;;;1.30;;
60494;SDS011;46342;49.046;11.920;2023-04-15T11:25:27;1.52;;;1.00;;
60494;SDS011;46342;49.046;11.920;2023-04-15T11:27:53;2.55;;;1.60;;
60494;SDS011;46342;49.046;11.920;2023-04-15T11:30:21;3.08;;;1.83;;
60494;SDS011;46342;49.046;11.920;2023-04-15T11:32:48;2.10;;;1.30;;
60494;SDS011;46342;49.046;11.920;2023-04-15T11:35:15;2.17;;;0.90;;
60494;SDS011;46342;49.046;11.920;2023-04-15T11:37:44;6.07;;;1.00;;
60494;SDS011;46342;49.046;11.920;2023-04-15T11:40:11;2.03;;;1.20;;
60494;SDS011;46342;49.046;11.920;2023-04-15T11:42:37;8.57;;;2.15;;
60494;SDS011;46342;49.046;11.920;2023-04-15T11:47:36;1.00;;;0.90;;
60494;SDS011;46342;49.046;11.920;2023-04-15T11:50:18;0.98;;;0.90;;
60494;SDS011;46342;49.046;11.920;2023-04-15T11:55:21;1.20;;;0.90;;
60494;SDS011;46342;49.046;11.920;2023-04-15T11:58:10;0.77;;;0.77;;
60494;SDS011;46342;49.046;11.920;2023-04-15T12:00:37;0.60;;;0.60;;
60494;SDS011;46342;49.046;11.920;2023-04-15T12:03:13;0.60;;;0.60;;
60494;SDS011;46342;49.046;11.920;2023-04-15T12:14:25;0.95;;;0.80;;
60494;SDS011;46342;49.046;11.920;2023-04-15T12:16:53;0.70;;;0.70;;
60494;SDS011;46342;49.046;11.920;2023-04-15T12:19:24;0.70;;;0.70;;
60494;SDS011;46342;49.046;11.920;2023-04-15T12:21:51;0.80;;;0.80;;
60494;SDS011;46342;49.046;11.920;2023-04-15T12:24:21;1.38;;;0.80;;
60494;SDS011;46342;49.046;11.920;2023-04-15T12:26:48;0.80;;;0.80;;
60494;SDS011;46342;49.046;11.920;2023-04-15T12:29:27;0.68;;;0.68;;
60494;SDS011;46342;49.046;11.920;2023-04-15T12:31:56;0.85;;;0.70;;
60494;SDS011;46342;49.046;11.920;2023-04-15T12:36:54;0.70;;;0.70;;
60494;SDS011;46342;49.046;11.920;2023-04-15T12:39:21;0.90;;;0.80;;
60494;SDS011;46342;49.046;11.920;2023-04-15T12:41:48;0.80;;;0.80;;
60494;SDS011;46342;49.046;11.920;2023-04-15T12:44:13;1.02;;;0.93;;
60494;SDS011;46342;49.046;11.920;2023-04-15T12:46:39;0.85;;;0.85;;
60494;SDS011;46342;49.046;11.920;2023-04-15T12:49:05;0.80;;;0.80;;
60494;SDS011;46342;49.046;11.920;2023-04-15T12:51:31;1.77;;;1.30;;
60494;SDS011;46342;49.046;11.920;2023-04-15T12:53:57;0.85;;;0.85;;
60494;SDS011;46342;49.046;11.920;2023-04-15T12:56:22;1.40;;;1.30;;
60494;SDS011;46342;49.046;11.920;2023-04-15T12:58:48;1.77;;;1.13;;
60494;SDS011;46342;49.046;11.920;2023-04-15T13:01:14;1.77;;;1.02;;
60494;SDS011;46342;49.046;11.920;2023-04-15T13:03:39;1.02;;;0.90;;
60494;SDS011;46342;49.046;11.920;2023-04-15T13:06:05;1.20;;;1.10;;
60494;SDS011;46342;49.046;11.920;2023-04-15T13:08:31;1.30;;;1.20;;
60494;SDS011;46342;49.046;11.920;2023-04-15T13:10:57;0.80;;;0.80;;
60494;SDS011;46342;49.046;11.920;2023-04-15T13:13:22;1.05;;;0.93;;
60494;SDS011;46342;49.046;11.920;2023-04-15T13:15:48;1.38;;;1.20;;
60494;SDS011;46342;49.046;11.920;2023-04-15T13:18:14;1.20;;;1.10;;
60494;SDS011;46342;49.046;11.920;2023-04-15T13:20:40;2.28;;;1.20;;
60494;SDS011;46342;49.046;11.920;2023-04-15T13:23:06;1.70;;;1.55;;
60494;SDS011;46342;49.046;11.920;2023-04-15T13:25:31;1.33;;;1.23;;
60494;SDS011;46342;49.046;11.920;2023-04-15T13:27:57;1.52;;;1.00;;
60494;SDS011;46342;49.046;11.920;2023-04-15T13:30:23;1.50;;;1.17;;
60494;SDS011;46342;49.046;11.920;2023-04-15T13:32:48;1.50;;;1.38;;
60494;SDS011;46342;49.046;11.920;2023-04-15T13:35:15;1.02;;;1.00;;
60494;SDS011;46342;49.046;11.920;2023-04-15T13:37:40;1.23;;;1.13;;
60494;SDS011;46342;49.046;11.920;2023-04-15T13:40:06;1.15;;;1.02;;
60494;SDS011;46342;49.046;11.920;2023-04-15T13:42:32;1.40;;;1.30;;
60494;SDS011;46342;49.046;11.920;2023-04-15T13:44:58;0.85;;;0.85;;
60494;SDS011;46342;49.046;11.920;2023-04-15T13:47:23;1.00;;;0.90;;
60494;SDS011;46342;49.046;11.920;2023-04-15T13:49:49;0.85;;;0.85;;
60494;SDS011;46342;49.046;11.920;2023-04-15T13:52:16;0.90;;;0.90;;
60494;SDS011;46342;49.046;11.920;2023-04-15T13:54:42;1.10;;;1.00;;
60494;SDS011;46342;49.046;11.920;2023-04-15T13:57:08;1.00;;;1.00;;
60494;SDS011;46342;49.046;11.920;2023-04-15T13:59:33;1.20;;;1.10;;
60494;SDS011;46342;49.046;11.920;2023-04-15T14:01:59;1.30;;;1.20;;
60494;SDS011;46342;49.046;11.920;2023-04-15T14:04:25;1.10;;;1.00;;
60494;SDS011;46342;49.046;11.920;2023-04-15T14:06:51;1.15;;;1.05;;
60494;SDS011;46342;49.046;11.920;2023-04-15T14:09:17;1.25;;;1.15;;
60494;SDS011;46342;49.046;11.920;2023-04-15T14:11:42;1.17;;;1.08;;
60494;SDS011;46342;49.046;11.920;2023-04-15T14:14:08;1.23;;;1.13;;
60494;SDS011;46342;49.046;11.920;2023-04-15T14:16:34;1.55;;;1.38;;
60494;SDS011;46342;49.046;11.920;2023-04-15T14:19:00;1.83;;;1.60;;
60494;SDS011;46342;49.046;11.920;2023-04-15T14:21:26;2.35;;;1.50;;
60494;SDS011;46342;49.046;11.920;2023-04-15T14:23:53;2.10;;;1.63;;
60494;SDS011;46342;49.046;11.920;2023-04-15T14:26:18;1.95;;;1.52;;
60494;SDS011;46342;49.046;11.920;2023-04-15T14:28:44;1.88;;;1.52;;
60494;SDS011;46342;49.046;11.920;2023-04-15T14:31:10;2.00;;;1.70;;
60494;SDS011;46342;49.046;11.920;2023-04-15T14:33:36;1.70;;;1.60;;
60494;SDS011;46342;49.046;11.920;2023-04-15T14:36:01;2.08;;;1.70;;
60494;SDS011;46342;49.046;11.920;2023-04-15T14:38:27;1.50;;;1.40;;
60494;SDS011;46342;49.046;11.920;2023-04-15T14:40:53;2.13;;;1.70;;
60494;SDS011;46342;49.046;11.920;2023-04-15T14:43:19;2.33;;;1.70;;
60494;SDS011;46342;49.046;11.920;2023-04-15T14:45:45;2.53;;;2.25;;
60494;SDS011;46342;49.046;11.920;2023-04-15T14:48:11;2.75;;;2.03;;
60494;SDS011;46342;49.046;11.920;2023-04-15T14:50:37;2.35;;;2.00;;
60494;SDS011;46342;49.046;11.920;2023-04-15T14:53:03;3.42;;;2.10;;
60494;SDS011;46342;49.046;11.920;2023-04-15T14:55:29;14.95;;;2.60;;
60494;SDS011;46342;49.046;11.920;2023-04-15T14:57:55;2.80;;;2.10;;
60494;SDS011;46342;49.046;11.920;2023-04-15T15:00:20;3.28;;;1.90;;
60494;SDS011;46342;49.046;11.920;2023-04-15T15:02:46;2.10;;;1.90;;
60494;SDS011;46342;49.046;11.920;2023-04-15T15:05:11;8.13;;;1.90;;